Britton, South Dakota
Current Conditions -  °F | °C
As of 5:35 PM on Wednesday 22 Oct 2014 (Local Time) from KGWR Reporting Station
Broken Clouds Broken Clouds  
Wind Chill: 57°   Ceiling: 12000
Heat Index: 57°   Visibility: 10mi
Dew Point: 57°   Wind: 8mph
Humidity: 100%   Direction: 230°SW
Pressure: 29.89"   Gusts: NA
Location:  45.79°N, 97.75°W
Report Text: KGWR 222235Z AUTO 23007KT 10SM BKN120 14/14 A2989 RMK A01 P000
Loading
Personal Weather Stations






























Interactive Weather Map
Tropical Storm Tracking
New forecast layout! Learn more

10-Day Weather Forecast

Advertisements
Track Severe Weather on mobile